Flight Track Log - Related Links

Times and Time Zones

All times are in EDT time to prevent confusion due to time zone crossing. See the OPT429 flight status page for this flight to view local times or setup timezone preferences in your user account.

Time Position Orientation Groundspeed Altitude Reporting Facility
EDT Latitude Longitude Course Direction KTS MPH feet Rate Location/Type
Mon 07:30:38 PM 47.4686 -122.2469 147° Southeast 208 239 4,600  Level Seattle Center
Mon 07:31:39 PM 47.3994 -122.2114 161° South 266 306 8,400 3,689 Climbing Seattle Center
Mon 07:32:40 PM 47.3172 -122.1878 169° South 298 343 12,100 3,639 Climbing Seattle Center
Mon 07:33:41 PM 47.2275 -122.1611 169° South 324 373 15,800 3,492 Climbing Seattle Center
Mon 07:34:42 PM 47.1464 -122.1408 170° South 332 382 19,200 3,590 Climbing Seattle Center
Mon 07:35:43 PM 47.0528 -122.1292 175° South 336 387 23,100 3,836 Climbing Seattle Center
Mon 07:36:44 PM 46.9425 -122.1125 174° South 332 382 27,000 3,098 Climbing Seattle Center
Mon 07:37:45 PM 46.8503 -122.0986 174° South 333 383 29,400 1,918 Climbing Seattle Center
Mon 07:38:46 PM 46.7517 -122.0853 175° South 353 406 30,900 1,328 Climbing Seattle Center
Mon 07:39:47 PM 46.6461 -122.0686 174° South 377 434 32,100 1,131 Climbing Seattle Center
Mon 07:40:48 PM 46.5328 -122.0531 175° South 407 468 33,200 1,082 Climbing Seattle Center
Mon 07:41:49 PM 46.4167 -122.0367 174° South 416 479 34,300 1,082 Climbing Seattle Center
Mon 07:42:50 PM 46.2969 -122.0194 174° South 430 495 35,400 1,082 Climbing Seattle Center
Mon 07:43:51 PM 46.1786 -122.0044 175° South 432 497 36,500 1,082 Climbing Seattle Center
Mon 07:44:52 PM 46.0597 -121.9864 174° South 432 497 37,600 1,033 Climbing Seattle Center
Mon 07:45:53 PM 45.9422 -121.9708 175° South 428 493 38,600 836 Climbing Seattle Center
Mon 07:46:54 PM 45.8250 -121.9544 174° South 426 490 39,300 738 Climbing Seattle Center
Mon 07:47:55 PM 45.6967 -121.9347 174° South 426 490 40,100 639 Climbing Seattle Center
Mon 07:48:56 PM 45.5781 -121.9194 175° South 426 490 40,600 443 Climbing Seattle Center
Mon 07:49:57 PM 45.4589 -121.9025 174° South 429 494 41,000 197 Climbing Seattle Center
Mon 07:50:58 PM 45.3361 -121.8853 174° South 439 505 41,000  Level Seattle Center
Mon 07:51:59 PM 45.2094 -121.8686 175° South 452 520 41,000  Level Seattle Center
Mon 07:53:00 PM 45.0575 -121.8469 174° South 455 524 41,000  Level Seattle Center
Mon 07:54:01 PM 44.9308 -121.8303 175° South 455 524 41,000  Level Seattle Center
Mon 07:55:03 PM 44.8056 -121.8136 175° South 455 524 41,000  Level Seattle Center
Mon 07:56:04 PM 44.6781 -121.7972 175° South 456 525 41,000  Level Seattle Center
Mon 07:57:05 PM 44.5542 -121.7797 174° South 456 525 41,000  Level Seattle Center
Mon 07:58:06 PM 44.4297 -121.7636 175° South 455 524 41,000  Level Seattle Center
Mon 07:59:07 PM 44.3058 -121.7458 174° South 454 522 41,000  Level Seattle Center
Mon 08:00:08 PM 44.1817 -121.7297 175° South 454 522 41,000  Level Seattle Center
Mon 08:01:09 PM 44.0592 -121.7133 175° South 448 516 41,000  Level Seattle Center
Mon 08:02:10 PM 43.9369 -121.6978 175° South 446 513 41,000  Level Seattle Center
Mon 08:03:11 PM 43.8039 -121.6797 174° South 446 513 41,000  Level Seattle Center
Mon 08:04:12 PM 43.6817 -121.6661 175° South 446 513 41,000  Level Seattle Center
Mon 08:05:13 PM 43.5586 -121.6506 175° South 446 513 41,000  Level Seattle Center
Mon 08:06:14 PM 43.4358 -121.6333 174° South 445 512 41,000  Level Seattle Center
Mon 08:07:15 PM 43.2897 -121.6147 175° South 445 512 41,000  Level Seattle Center
Mon 08:08:16 PM 43.1675 -121.5994 175° South 443 510 41,000  Level Seattle Center
Mon 08:09:18 PM 43.0458 -121.5833 174° South 442 509 41,000  Level Seattle Center
Mon 08:10:19 PM 42.9236 -121.5697 175° South 442 509 41,000  Level Seattle Center
Mon 08:11:20 PM 42.8022 -121.5533 174° South 441 507 41,000  Level Seattle Center
Mon 08:12:21 PM 42.6814 -121.5375 174° South 439 505 41,000  Level Seattle Center
Mon 08:13:22 PM 42.5589 -121.5244 176° South 439 505 41,000  Level Seattle Center
Mon 08:14:23 PM 42.4358 -121.5086 175° South 440 506 41,000  Level Seattle Center
Mon 08:15:24 PM 42.3122 -121.4939 175° South 441 507 41,000  Level Seattle Center
Mon 08:16:25 PM 42.1906 -121.4789 175° South 439 505 41,000  Level Seattle Center
Mon 08:17:26 PM 42.0683 -121.4647 175° South 436 502 41,000  Level Seattle Center
Mon 08:18:27 PM 41.9475 -121.4494 175° South 435 501 41,000  Level Seattle Center
Mon 08:19:28 PM 41.8278 -121.4350 175° South 428 493 41,000  Level Seattle Center
Mon 08:20:29 PM 41.7086 -121.4208 175° South 429 494 41,000  Level Seattle Center
Mon 08:21:30 PM 41.5900 -121.4078 175° South 427 491 41,000  Level Seattle Center
Mon 08:22:31 PM 41.4700 -121.3931 175° South 429 494 41,000  Level Seattle Center
Mon 08:23:32 PM 41.3272 -121.3619 171° South 433 498 41,000  Level Seattle Center
Mon 08:24:33 PM 41.2092 -121.3164 164° South 440 506 41,000  Level Seattle Center
Mon 08:25:34 PM 41.0914 -121.2714 164° South 440 506 41,000  Level Seattle Center
Mon 08:26:35 PM 40.9733 -121.2275 164° South 440 506 41,000  Level Seattle Center
Mon 08:27:36 PM 40.8531 -121.1831 164° South 447 514 41,000  Level Seattle Center
Mon 08:28:37 PM 40.7317 -121.1381 164° South 452 520 41,000  Level Seattle Center
Mon 08:29:38 PM 40.6142 -121.0958 165° South 452 520 41,000  Level Seattle Center
Mon 08:30:40 PM 40.4917 -121.0519 165° South 453 521 41,000  Level Seattle Center
Mon 08:31:41 PM 40.3664 -121.0069 165° South 461 531 41,000  Level Seattle Center
Mon 08:32:42 PM 40.2181 -120.9517 164° South 460 529 41,000  Level Seattle Center
Mon 08:33:43 PM 40.0928 -120.9069 165° South 463 533 41,000  Level Seattle Center
Mon 08:35:11 PM 39.9247 -120.8469 165° South 464 534 41,000  Level Oakland Center
Mon 08:36:12 PM 39.8025 -120.8047 165° South 458 527 41,000  Level Oakland Center
Mon 08:37:14 PM 39.6806 -120.7622 165° South 456 525 41,000  Level Oakland Center
Mon 08:38:15 PM 39.5578 -120.7186 165° South 456 525 41,000  Level Oakland Center
Mon 08:39:16 PM 39.4111 -120.6667 165° South 456 525 41,000  Level Oakland Center
Mon 08:40:17 PM 39.2883 -120.6247 165° South 455 524 41,000  Level Oakland Center
Mon 08:41:19 PM 39.1664 -120.5825 165° South 455 524 41,000  Level Oakland Center
Mon 08:42:20 PM 39.0433 -120.5394 165° South 454 522 41,000  Level Oakland Center
Mon 08:43:21 PM 38.9214 -120.4978 165° South 454 522 41,000  Level Oakland Center
Mon 08:44:23 PM 38.7989 -120.4547 165° South 454 522 41,000  Level Oakland Center
Mon 08:45:24 PM 38.6758 -120.4139 165° South 453 521 41,000  Level Oakland Center
Mon 08:46:25 PM 38.5544 -120.3722 165° South 453 521 41,000  Level Oakland Center
Mon 08:47:27 PM 38.4317 -120.3308 165° South 453 521 41,000  Level Oakland Center
Mon 08:48:28 PM 38.3097 -120.2892 165° South 452 520 41,000  Level Oakland Center
Mon 08:49:29 PM 38.1878 -120.2489 165° South 452 520 41,000  Level Oakland Center
Mon 08:50:31 PM 38.0669 -120.2075 165° South 452 520 41,000  Level Oakland Center
Mon 08:51:32 PM 37.9200 -120.1606 166° South 452 520 41,000  Level Oakland Center
Mon 08:52:33 PM 37.8017 -120.1186 164° South 446 513 41,000  Level Oakland Center
Mon 08:53:35 PM 37.6814 -120.0792 165° South 446 513 41,000  Level Oakland Center
Mon 08:54:36 PM 37.5606 -120.0397 165° South 447 514 41,000  Level Oakland Center
Mon 08:55:37 PM 37.4406 -119.9997 165° South 447 514 41,000  Level Oakland Center
Mon 08:56:39 PM 37.3219 -119.9592 165° South 445 512 41,000  Level Oakland Center
Mon 08:57:40 PM 37.2039 -119.9208 165° South 441 507 41,000  Level Oakland Center
Mon 08:58:41 PM 37.0867 -119.8819 165° South 438 504 41,000  Level Oakland Center
Mon 08:59:43 PM 36.9722 -119.8458 166° South 426 490 41,000  Level Oakland Center
Mon 09:00:44 PM 36.8600 -119.8050 164° South 424 488 41,000  Level Oakland Center
Mon 09:01:45 PM 36.7503 -119.7469 157° South 425 489 41,000  Level Oakland Center
Mon 09:02:46 PM 36.6214 -119.6794 157° South 423 487 41,000  Level Oakland Center
Mon 09:03:48 PM 36.5144 -119.6225 157° South 421 484 41,000  Level Oakland Center
Mon 09:04:49 PM 36.4081 -119.5692 158° South 414 476 41,000  Level Oakland Center
Mon 09:05:50 PM 36.3017 -119.5131 157° South 413 475 41,000  Level Oakland Center
Mon 09:06:52 PM 36.1956 -119.4603 158° South 412 474 41,000  Level Oakland Center
Mon 09:07:53 PM 36.0889 -119.4036 157° South 412 474 41,000  Level Oakland Center
Mon 09:08:54 PM 35.9842 -119.3508 158° South 411 473 41,000  Level Oakland Center
Mon 09:09:56 PM 35.8767 -119.2997 159° South 411 473 41,000  Level Oakland Center
Mon 09:10:57 PM 35.7692 -119.2511 160° South 410 472 41,000  Level Oakland Center
Mon 09:11:58 PM 35.6628 -119.2022 160° South 410 472 41,000 -98 Level Oakland Center
Mon 09:13:00 PM 35.5553 -119.1533 160° South 411 473 40,800 -683 Descending Oakland Center
Mon 09:14:01 PM 35.4236 -119.0933 160° South 417 480 39,600 -1,030 Descending Oakland Center
Mon 09:15:14 PM 35.2897 -119.0328 160° South 423 487 38,500 -933 Descending Los Angeles Center
Mon 09:16:16 PM 35.1797 -118.9833 160° South 423 487 37,500 -952 Descending Los Angeles Center
Mon 09:17:20 PM 35.0711 -118.9344 160° South 419 482 36,500 -968 Descending Los Angeles Center
Mon 09:18:20 PM 34.9606 -118.8867 160° South 419 482 35,500 -1,180 Descending Los Angeles Center
Mon 09:19:22 PM 34.8467 -118.8339 159° South 417 480 34,100 -1,220 Descending Los Angeles Center
Mon 09:20:23 PM 34.7411 -118.7894 161° South 423 487 33,000 -537 Descending Los Angeles Center
Mon 09:21:25 PM 34.6303 -118.7411 160° South 427 491 33,000 -726 Level Los Angeles Center
Mon 09:22:27 PM 34.4994 -118.6833 160° South 419 482 31,500 -1,694 Descending Los Angeles Center
Mon 09:23:29 PM 34.3911 -118.6358 160° South 419 482 29,500 -1,887 Descending Los Angeles Center
Mon 09:24:31 PM 34.2831 -118.5869 160° South 418 481 27,600 -1,887 Descending Los Angeles Center
Mon 09:25:33 PM 34.1756 -118.5394 160° South 413 475 25,600 -1,742 Descending Los Angeles Center
Mon 09:26:35 PM 34.0683 -118.4939 161° South 410 472 24,000 -1,016 Descending Los Angeles Center
Mon 09:27:37 PM 33.9631 -118.4511 161° South 414 476 23,500 -968 Descending Los Angeles Center
Mon 09:28:39 PM 33.8361 -118.4661 186° South 402 463 22,000 -1,355 Descending Los Angeles Center
Mon 09:29:41 PM 33.7372 -118.5014 197° South 376 433 20,700 -1,258 Descending Los Angeles Center
Mon 09:30:43 PM 33.6392 -118.5342 196° South 373 429 19,400 -1,258 Descending Los Angeles Center
Mon 09:31:45 PM 33.5397 -118.5383 182° South 368 423 18,100 -1,887 Descending Los Angeles Center
Mon 09:32:47 PM 33.4342 -118.4711 152° Southeast 362 417 15,500 -2,226 Descending Los Angeles Center
Mon 09:33:49 PM 33.3697 -118.3836 131° Southeast 369 425 13,500 -1,935 Descending Los Angeles Center
Mon 09:34:51 PM 33.3542 -118.2672 99° East 364 419 11,500 -1,500 Descending Los Angeles Center
Mon 09:35:53 PM 33.3403 -118.1628 99° East 332 382 10,400 -1,065 Descending Los Angeles Center
Mon 09:36:55 PM 33.3275 -118.0567 98° East 327 376 9,300 -1,306 Descending Los Angeles Center
Mon 09:37:57 PM 33.3094 -117.9272 99° East 328 377 7,700 -1,403 Descending Los Angeles Center
Mon 09:38:59 PM 33.2961 -117.8239 99° East 322 371 6,400 -1,268 Descending Los Angeles Center
Mon 09:40:00 PM 33.2675 -117.7353 111° Southeast 299 344 5,100 -683 Descending Los Angeles Center
Mon 09:41:02 PM 33.2281 -117.6567 121° Southeast 282 325 5,000 -48 Descending Los Angeles Center
Mon 09:42:04 PM 33.1886 -117.5764 120° Southeast 281 323 5,000  Level Los Angeles Center
Mon 09:43:06 PM 33.1519 -117.4936 118° Southeast 282 325 5,000 -145 Level Los Angeles Center
Mon 09:44:08 PM 33.1350 -117.3839 100° East 280 322 4,700 -532 Descending Los Angeles Center
Mon 09:45:10 PM 33.1203 -117.3061 103° East 249 287 3,900 -968 Descending Los Angeles Center
Mon 09:46:12 PM 33.0975 -117.2550 118° Southeast 191 220 2,700 -1,403 Descending Los Angeles Center
Mon 09:47:14 PM 33.1336 -117.2431 15° North 180 207 1,000 -1,113 Descending Los Angeles Center
Mon 09:48:16 PM 33.1278 -117.2836 260° West 144 166 400 -581 Descending Los Angeles Center

Login

Don't have an account? Register now (free) for customized features, flight alerts, and more!